createdAt,value
2017-05-14T00:00:15.401Z,22.50
2017-05-14T00:01:15.872Z,22.16
2017-05-14T00:02:14.665Z,21.98
2017-05-14T00:03:15.155Z,21.95
2017-05-14T00:04:15.264Z,21.92
2017-05-14T00:05:12.812Z,21.90
2017-05-14T00:06:11.147Z,21.90
2017-05-14T00:07:13.233Z,21.89
2017-05-14T00:08:16.683Z,22.43
2017-05-14T00:09:15.070Z,22.49
2017-05-14T00:10:16.739Z,22.50
2017-05-14T00:11:15.313Z,22.53
2017-05-14T00:12:13.242Z,22.53
2017-05-14T00:13:15.235Z,22.54
2017-05-14T00:14:16.406Z,22.55
2017-05-14T00:15:15.758Z,22.54
2017-05-14T00:16:13.121Z,22.55
2017-05-14T00:17:11.910Z,22.55
2017-05-14T00:18:11.570Z,22.55
2017-05-14T00:19:15.844Z,22.55
2017-05-14T00:20:15.096Z,22.54
2017-05-14T00:21:12.699Z,22.02
2017-05-14T00:22:09.262Z,21.95
2017-05-14T00:23:14.842Z,21.93
2017-05-14T00:24:14.721Z,21.92
2017-05-14T00:25:15.365Z,21.92
2017-05-14T00:26:14.663Z,21.90
2017-05-14T00:27:15.072Z,21.89
2017-05-14T00:28:15.093Z,21.89
2017-05-14T00:29:15.504Z,21.89
2017-05-14T00:30:15.342Z,21.89
2017-05-14T00:31:15.193Z,21.89
2017-05-14T00:32:15.668Z,21.89
2017-05-14T00:33:12.017Z,21.88
2017-05-14T00:34:15.016Z,22.42
2017-05-14T00:35:14.817Z,22.48
2017-05-14T00:36:15.262Z,22.50
2017-05-14T00:37:15.351Z,22.51
2017-05-14T00:38:15.241Z,22.52
2017-05-14T00:39:14.894Z,22.53
2017-05-14T00:40:15.583Z,22.53
2017-05-14T00:41:14.602Z,22.53
2017-05-14T00:42:15.358Z,22.53
2017-05-14T00:43:15.703Z,22.53
2017-05-14T00:44:14.757Z,22.54
2017-05-14T00:45:15.144Z,22.53
2017-05-14T00:46:15.732Z,22.53
2017-05-14T00:47:15.897Z,22.53
2017-05-14T00:48:15.250Z,22.53
2017-05-14T00:49:15.094Z,22.53
2017-05-14T00:50:15.193Z,22.54
2017-05-14T00:51:15.323Z,21.99
2017-05-14T00:52:16.423Z,21.96
2017-05-14T00:53:15.300Z,21.92
2017-05-14T00:54:15.672Z,21.91
2017-05-14T00:55:15.447Z,21.90
2017-05-14T00:56:14.607Z,21.89
2017-05-14T00:57:14.361Z,21.89
2017-05-14T00:58:15.054Z,21.96
2017-05-14T00:59:14.827Z,21.89
2017-05-14T01:00:15.325Z,21.88
2017-05-14T01:01:15.587Z,21.88
2017-05-14T01:02:14.898Z,21.90
2017-05-14T01:03:15.129Z,21.88
2017-05-14T01:04:15.319Z,21.87
2017-05-14T01:05:14.980Z,21.87
2017-05-14T01:06:15.315Z,21.88
2017-05-14T01:07:16.669Z,21.87
2017-05-14T01:08:14.981Z,21.88
2017-05-14T01:09:16.512Z,21.88
2017-05-14T01:10:15.228Z,21.87
2017-05-14T01:11:12.481Z,21.86
2017-05-14T01:12:14.887Z,21.87
2017-05-14T01:13:16.727Z,21.87
2017-05-14T01:14:16.209Z,21.87
2017-05-14T01:15:15.790Z,21.86
2017-05-14T01:16:14.976Z,21.87
2017-05-14T01:17:15.479Z,21.87
2017-05-14T01:18:14.789Z,21.87
2017-05-14T01:19:12.567Z,21.87
2017-05-14T01:20:15.044Z,22.39
2017-05-14T01:21:15.345Z,22.46
2017-05-14T01:22:15.712Z,22.48
2017-05-14T01:23:14.646Z,22.50
2017-05-14T01:24:15.837Z,22.51
2017-05-14T01:25:14.873Z,22.50
2017-05-14T01:26:14.922Z,22.50
2017-05-14T01:27:15.116Z,22.51
2017-05-14T01:28:11.680Z,22.51
2017-05-14T01:29:09.755Z,22.51
2017-05-14T01:30:15.213Z,22.52
2017-05-14T01:31:16.154Z,22.53
2017-05-14T01:32:15.731Z,22.51
2017-05-14T01:33:14.793Z,22.51
2017-05-14T01:34:11.364Z,22.51
2017-05-14T01:35:10.313Z,21.98
2017-05-14T01:36:15.034Z,21.92
2017-05-14T01:37:15.667Z,21.97
2017-05-14T01:38:16.247Z,21.89
2017-05-14T01:39:15.565Z,21.88
2017-05-14T01:40:15.644Z,21.87
2017-05-14T01:41:13.279Z,21.86
2017-05-14T01:42:14.943Z,21.86
2017-05-14T01:43:15.221Z,21.88
2017-05-14T01:44:12.045Z,21.86
2017-05-14T01:45:15.253Z,21.86
2017-05-14T01:46:15.410Z,21.86
2017-05-14T01:47:14.914Z,21.91
2017-05-14T01:48:14.913Z,21.86
2017-05-14T01:49:15.267Z,21.86
2017-05-14T01:50:15.468Z,21.86
2017-05-14T01:51:15.048Z,21.91
2017-05-14T01:52:14.967Z,21.86
2017-05-14T01:53:15.154Z,21.86
2017-05-14T01:54:15.361Z,21.86
2017-05-14T01:55:11.184Z,21.85
2017-05-14T01:56:15.280Z,21.85
2017-05-14T01:57:14.466Z,21.85
2017-05-14T01:58:14.994Z,21.86
2017-05-14T01:59:16.225Z,21.85
2017-05-14T02:00:15.132Z,21.86
2017-05-14T02:01:16.198Z,21.86
2017-05-14T02:02:15.346Z,21.86
2017-05-14T02:03:15.622Z,21.89
2017-05-14T02:04:14.806Z,21.86
2017-05-14T02:05:15.433Z,21.88
2017-05-14T02:06:15.693Z,22.39
2017-05-14T02:07:15.343Z,22.44
2017-05-14T02:08:16.801Z,21.94
2017-05-14T02:09:14.693Z,21.89
2017-05-14T02:10:15.767Z,21.87
2017-05-14T02:11:14.859Z,21.87
2017-05-14T02:12:15.224Z,21.85
2017-05-14T02:13:15.498Z,21.86
2017-05-14T02:14:14.840Z,21.85
2017-05-14T02:15:16.873Z,21.85
2017-05-14T02:16:16.307Z,21.86
2017-05-14T02:17:16.257Z,21.88
2017-05-14T02:18:15.408Z,22.39
2017-05-14T02:19:15.417Z,22.07
2017-05-14T02:20:15.013Z,21.91
2017-05-14T02:21:15.118Z,21.89
2017-05-14T02:22:15.552Z,21.87
2017-05-14T02:23:14.868Z,21.86
2017-05-14T02:24:15.597Z,21.90
2017-05-14T02:25:14.670Z,21.85
2017-05-14T02:26:14.893Z,21.85
2017-05-14T02:27:09.607Z,21.84
2017-05-14T02:28:15.499Z,21.89
2017-05-14T02:29:14.316Z,21.84
2017-05-14T02:30:14.504Z,21.84
2017-05-14T02:31:14.875Z,21.89
2017-05-14T02:32:15.538Z,21.85
2017-05-14T02:33:14.987Z,21.85
2017-05-14T02:34:15.050Z,21.84
2017-05-14T02:35:15.988Z,21.84
2017-05-14T02:36:14.998Z,21.85
2017-05-14T02:37:15.408Z,22.36
2017-05-14T02:38:15.178Z,21.90
2017-05-14T02:39:15.277Z,21.87
2017-05-14T02:40:16.668Z,21.85
2017-05-14T02:41:14.852Z,21.85
2017-05-14T02:42:15.124Z,21.85
2017-05-14T02:43:19.074Z,21.85
2017-05-14T02:44:12.646Z,21.84
2017-05-14T02:45:14.834Z,21.85
2017-05-14T02:46:14.993Z,21.85
2017-05-14T02:47:15.173Z,21.84
2017-05-14T02:48:15.333Z,21.84
2017-05-14T02:49:14.019Z,21.85
2017-05-14T02:50:14.550Z,21.85
2017-05-14T02:51:14.739Z,21.84
2017-05-14T02:52:11.506Z,21.84
2017-05-14T02:53:14.374Z,21.85
2017-05-14T02:54:14.414Z,21.84
2017-05-14T02:55:14.500Z,21.84
2017-05-14T02:56:15.222Z,21.84
2017-05-14T02:57:15.333Z,22.04
2017-05-14T02:58:15.334Z,21.89
2017-05-14T02:59:15.394Z,21.86
2017-05-14T03:00:15.213Z,21.85
2017-05-14T03:01:15.209Z,21.85
2017-05-14T03:02:16.527Z,21.85
2017-05-14T03:03:15.052Z,21.84
2017-05-14T03:04:15.199Z,21.84
2017-05-14T03:05:17.120Z,21.83
2017-05-14T03:06:16.545Z,21.84
2017-05-14T03:07:15.973Z,21.84
2017-05-14T03:08:13.181Z,21.84
2017-05-14T03:09:15.868Z,21.84
2017-05-14T03:10:15.173Z,21.83
2017-05-14T03:11:16.301Z,21.84
2017-05-14T03:12:15.304Z,21.83
2017-05-14T03:13:14.966Z,21.84
2017-05-14T03:14:15.508Z,21.88
2017-05-14T03:15:10.181Z,21.83
2017-05-14T03:16:15.454Z,21.83
2017-05-14T03:17:11.769Z,21.83
2017-05-14T03:18:15.093Z,22.09
2017-05-14T03:19:15.099Z,21.88
2017-05-14T03:20:11.768Z,21.85
2017-05-14T03:21:15.036Z,21.84
2017-05-14T03:22:15.762Z,21.84
2017-05-14T03:23:15.129Z,21.83
2017-05-14T03:24:15.394Z,21.83
2017-05-14T03:25:15.118Z,21.89
2017-05-14T03:26:15.807Z,21.83
2017-05-14T03:27:14.796Z,21.82
2017-05-14T03:28:14.608Z,21.82
2017-05-14T03:29:14.477Z,21.83
2017-05-14T03:30:14.884Z,21.82
2017-05-14T03:31:15.533Z,21.83
2017-05-14T03:32:14.826Z,21.83
2017-05-14T03:33:15.049Z,21.82
2017-05-14T03:34:15.111Z,21.83
2017-05-14T03:35:15.421Z,21.83
2017-05-14T03:36:14.653Z,21.87
2017-05-14T03:37:16.124Z,21.82
2017-05-14T03:38:15.097Z,21.82
2017-05-14T03:39:15.611Z,21.82
2017-05-14T03:40:15.087Z,21.87
2017-05-14T03:41:15.459Z,21.83
2017-05-14T03:42:14.382Z,21.82
2017-05-14T03:43:15.057Z,21.82
2017-05-14T03:44:15.136Z,21.81
2017-05-14T03:45:15.195Z,21.82
2017-05-14T03:46:15.554Z,21.81
2017-05-14T03:47:14.861Z,21.81
2017-05-14T03:48:14.483Z,21.81
2017-05-14T03:49:15.075Z,21.82
2017-05-14T03:50:15.148Z,21.81
2017-05-14T03:51:15.267Z,21.82
2017-05-14T03:52:15.071Z,21.81
2017-05-14T03:53:15.706Z,21.82
2017-05-14T03:54:16.215Z,21.81
2017-05-14T03:55:15.464Z,21.82
2017-05-14T03:56:09.984Z,21.81
2017-05-14T03:57:14.912Z,21.81
2017-05-14T03:58:14.934Z,21.81
2017-05-14T03:59:15.713Z,21.82
2017-05-14T04:00:14.967Z,21.81
2017-05-14T04:01:15.161Z,21.81
2017-05-14T04:02:15.156Z,21.82
2017-05-14T04:03:15.967Z,21.81
2017-05-14T04:04:13.291Z,21.80
2017-05-14T04:05:15.414Z,21.81
2017-05-14T04:06:15.801Z,21.81
2017-05-14T04:07:15.037Z,21.81
2017-05-14T04:08:16.799Z,21.80
2017-05-14T04:09:09.715Z,21.81
2017-05-14T04:10:14.688Z,21.81
2017-05-14T04:11:14.768Z,21.81
2017-05-14T04:12:15.302Z,21.86
2017-05-14T04:13:15.569Z,21.80
2017-05-14T04:14:14.715Z,21.80
2017-05-14T04:15:15.280Z,21.81
2017-05-14T04:16:11.206Z,22.33
2017-05-14T04:17:14.973Z,22.39
2017-05-14T04:18:11.535Z,22.41
2017-05-14T04:19:14.905Z,21.96
2017-05-14T04:20:13.512Z,21.85
2017-05-14T04:21:14.547Z,21.83
2017-05-14T04:22:14.715Z,21.83
2017-05-14T04:23:14.652Z,21.82
2017-05-14T04:24:14.620Z,21.82
2017-05-14T04:25:16.002Z,21.81
2017-05-14T04:26:14.776Z,21.81
2017-05-14T04:27:14.686Z,21.81
2017-05-14T04:28:15.046Z,21.88
2017-05-14T04:29:15.292Z,22.34
2017-05-14T04:30:15.249Z,22.02
2017-05-14T04:31:16.806Z,21.85
2017-05-14T04:32:14.965Z,21.84
2017-05-14T04:33:15.265Z,21.82
2017-05-14T04:34:15.471Z,21.81
2017-05-14T04:35:15.118Z,21.89
2017-05-14T04:36:15.397Z,22.35
2017-05-14T04:37:14.533Z,22.40
2017-05-14T04:38:14.961Z,22.43
2017-05-14T04:39:16.120Z,22.43
2017-05-14T04:40:15.965Z,22.44
2017-05-14T04:41:16.076Z,22.45
2017-05-14T04:42:11.607Z,22.45
2017-05-14T04:43:16.112Z,21.91
2017-05-14T04:44:15.609Z,21.86
2017-05-14T04:45:14.679Z,21.84
2017-05-14T04:46:15.142Z,21.82
2017-05-14T04:47:16.088Z,21.82
2017-05-14T04:48:15.411Z,21.82
2017-05-14T04:49:14.400Z,21.81
2017-05-14T04:50:15.092Z,21.81
2017-05-14T04:51:15.485Z,21.81
2017-05-14T04:52:14.384Z,21.80
2017-05-14T04:53:14.788Z,21.79
2017-05-14T04:54:15.460Z,21.80
2017-05-14T04:55:15.326Z,21.80
2017-05-14T04:56:15.239Z,21.79
2017-05-14T04:57:15.160Z,21.79
2017-05-14T04:58:15.205Z,21.79
2017-05-14T04:59:15.190Z,21.79
2017-05-14T05:00:16.064Z,21.79
2017-05-14T05:01:15.000Z,21.80
2017-05-14T05:02:11.420Z,21.79
2017-05-14T05:03:15.295Z,21.86
2017-05-14T05:04:15.761Z,21.83
2017-05-14T05:05:16.137Z,21.78
2017-05-14T05:06:15.819Z,21.79
2017-05-14T05:07:15.600Z,21.79
2017-05-14T05:08:15.290Z,21.79
2017-05-14T05:09:15.794Z,21.78
2017-05-14T05:10:15.431Z,21.78
2017-05-14T05:11:14.612Z,21.79
2017-05-14T05:12:14.898Z,21.79
2017-05-14T05:13:15.250Z,21.79
2017-05-14T05:14:15.474Z,21.83
2017-05-14T05:15:14.869Z,21.79
2017-05-14T05:16:15.225Z,21.79
2017-05-14T05:17:15.358Z,21.78
2017-05-14T05:18:15.396Z,21.79
2017-05-14T05:19:15.399Z,21.79
2017-05-14T05:20:13.978Z,21.78
2017-05-14T05:21:12.326Z,21.78
2017-05-14T05:22:15.603Z,21.86
2017-05-14T05:23:10.970Z,21.78
2017-05-14T05:24:15.970Z,21.78
2017-05-14T05:25:15.949Z,21.79
2017-05-14T05:26:14.981Z,21.78
2017-05-14T05:27:15.621Z,21.79
2017-05-14T05:28:11.030Z,21.78
2017-05-14T05:29:14.762Z,21.79
2017-05-14T05:30:15.253Z,21.78
2017-05-14T05:31:11.698Z,21.78
2017-05-14T05:32:14.985Z,21.78
2017-05-14T05:33:14.923Z,21.78
2017-05-14T05:34:15.227Z,21.78
2017-05-14T05:35:15.968Z,21.77
2017-05-14T05:36:15.063Z,21.78
2017-05-14T05:37:15.007Z,21.77
2017-05-14T05:38:14.988Z,22.32
2017-05-14T05:39:14.841Z,22.02
2017-05-14T05:40:14.792Z,21.85
2017-05-14T05:41:15.613Z,21.82
2017-05-14T05:42:14.196Z,21.80
2017-05-14T05:43:15.011Z,21.79
2017-05-14T05:44:17.844Z,21.79
2017-05-14T05:45:15.844Z,21.78
2017-05-14T05:46:15.171Z,21.78
2017-05-14T05:47:15.310Z,21.78
2017-05-14T05:48:15.245Z,21.78
2017-05-14T05:49:16.154Z,21.78
2017-05-14T05:50:15.192Z,21.78
2017-05-14T05:51:15.384Z,21.77
2017-05-14T05:52:15.121Z,21.77
2017-05-14T05:53:10.792Z,21.77
2017-05-14T05:54:14.727Z,21.77
2017-05-14T05:55:15.475Z,21.77
2017-05-14T05:56:15.318Z,21.77
2017-05-14T05:57:15.087Z,21.77
2017-05-14T05:58:12.307Z,21.77
2017-05-14T05:59:15.162Z,22.30
2017-05-14T06:00:11.633Z,21.82
2017-05-14T06:01:15.139Z,21.88
2017-05-14T06:02:15.838Z,22.33
2017-05-14T06:03:15.710Z,22.37
2017-05-14T06:04:15.962Z,22.39
2017-05-14T06:05:15.068Z,22.39
2017-05-14T06:06:15.720Z,22.41
2017-05-14T06:07:11.205Z,22.40
2017-05-14T06:08:11.346Z,22.41
2017-05-14T06:09:14.890Z,21.89
2017-05-14T06:10:15.039Z,21.83
2017-05-14T06:11:15.219Z,21.80
2017-05-14T06:12:15.273Z,21.95
2017-05-14T06:13:15.839Z,21.81
2017-05-14T06:14:11.359Z,21.80
2017-05-14T06:15:15.298Z,21.79
2017-05-14T06:16:12.230Z,21.78
2017-05-14T06:17:15.081Z,21.78
2017-05-14T06:18:15.204Z,21.78
2017-05-14T06:19:15.326Z,21.77
2017-05-14T06:20:15.534Z,21.77
2017-05-14T06:21:14.584Z,21.77
2017-05-14T06:22:15.024Z,21.77
2017-05-14T06:23:15.111Z,21.77
2017-05-14T06:24:15.140Z,21.77
2017-05-14T06:25:16.477Z,21.77
2017-05-14T06:26:14.748Z,21.76
2017-05-14T06:27:15.416Z,21.77
2017-05-14T06:28:20.349Z,21.77
2017-05-14T06:29:15.310Z,21.96
2017-05-14T06:30:16.053Z,21.82
2017-05-14T06:31:14.813Z,21.79
2017-05-14T06:32:11.046Z,21.78
2017-05-14T06:33:14.326Z,21.79
2017-05-14T06:34:14.509Z,21.77
2017-05-14T06:35:15.202Z,21.78
2017-05-14T06:36:15.297Z,21.77
2017-05-14T06:37:16.415Z,21.77
2017-05-14T06:38:14.997Z,21.77
2017-05-14T06:39:15.192Z,21.77
2017-05-14T06:40:11.727Z,21.76
2017-05-14T06:41:15.106Z,21.76
2017-05-14T06:42:15.619Z,21.77
2017-05-14T06:43:16.079Z,21.76
2017-05-14T06:44:15.655Z,21.83
2017-05-14T06:45:10.657Z,21.76
2017-05-14T06:46:12.383Z,21.77
2017-05-14T06:47:14.782Z,21.76
2017-05-14T06:48:15.507Z,21.84
2017-05-14T06:49:14.666Z,21.80
2017-05-14T06:50:15.771Z,22.31
2017-05-14T06:51:16.438Z,21.98
2017-05-14T06:52:14.993Z,21.91
2017-05-14T06:53:11.334Z,21.81
2017-05-14T06:54:16.094Z,21.79
2017-05-14T06:55:15.740Z,21.78
2017-05-14T06:56:15.131Z,21.78
2017-05-14T06:57:15.059Z,21.77
2017-05-14T06:58:15.220Z,21.77
2017-05-14T06:59:10.941Z,21.77
2017-05-14T07:00:14.390Z,22.30
2017-05-14T07:01:16.048Z,22.34
2017-05-14T07:02:15.267Z,22.38
2017-05-14T07:03:16.757Z,22.39
2017-05-14T07:04:15.264Z,21.94
2017-05-14T07:05:12.114Z,21.82
2017-05-14T07:06:14.290Z,21.80
2017-05-14T07:07:15.324Z,21.84
2017-05-14T07:08:16.342Z,21.78
2017-05-14T07:09:15.422Z,21.78
2017-05-14T07:10:14.614Z,21.81
2017-05-14T07:11:11.706Z,21.77
2017-05-14T07:12:14.914Z,21.77
2017-05-14T07:13:15.396Z,21.77
2017-05-14T07:14:17.845Z,21.83
2017-05-14T07:15:13.343Z,21.76
2017-05-14T07:16:15.074Z,21.77
2017-05-14T07:17:16.530Z,21.77
2017-05-14T07:18:14.854Z,21.77
2017-05-14T07:19:16.103Z,21.77
2017-05-14T07:20:15.082Z,21.76
2017-05-14T07:21:16.029Z,21.77
2017-05-14T07:22:15.697Z,21.77
2017-05-14T07:23:15.368Z,21.76
2017-05-14T07:24:11.658Z,21.76
2017-05-14T07:25:15.653Z,21.77
2017-05-14T07:26:14.989Z,21.76
2017-05-14T07:27:15.164Z,21.77
2017-05-14T07:28:15.308Z,21.77
2017-05-14T07:29:12.104Z,21.77
2017-05-14T07:30:14.175Z,21.77
2017-05-14T07:31:15.666Z,21.76
2017-05-14T07:32:11.007Z,21.76
2017-05-14T07:33:15.449Z,21.76
2017-05-14T07:34:15.685Z,21.73
2017-05-14T07:35:14.813Z,21.76
2017-05-14T07:36:16.567Z,21.82
2017-05-14T07:37:12.096Z,21.76
2017-05-14T07:38:13.775Z,21.77
2017-05-14T07:39:12.393Z,21.76
2017-05-14T07:40:15.554Z,21.81
2017-05-14T07:41:11.813Z,21.76
2017-05-14T07:42:14.657Z,22.31
2017-05-14T07:43:14.558Z,22.35
2017-05-14T07:44:15.485Z,22.38
2017-05-14T07:45:14.734Z,22.38
2017-05-14T07:46:15.094Z,21.92
2017-05-14T07:47:15.591Z,21.81
2017-05-14T07:48:14.373Z,21.79
2017-05-14T07:49:15.294Z,21.78
2017-05-14T07:50:15.352Z,21.77
2017-05-14T07:51:15.799Z,21.76
2017-05-14T07:52:14.927Z,21.76
2017-05-14T07:53:15.445Z,21.76
2017-05-14T07:54:14.056Z,21.76
2017-05-14T07:55:15.522Z,21.77
2017-05-14T07:56:09.902Z,21.76
2017-05-14T07:57:12.371Z,21.75
2017-05-14T07:58:15.257Z,21.76
2017-05-14T07:59:15.503Z,21.76
2017-05-14T08:00:16.079Z,21.76
2017-05-14T08:01:17.075Z,21.75
2017-05-14T08:02:17.304Z,21.79
2017-05-14T08:03:15.811Z,21.78
2017-05-14T08:04:10.131Z,21.78
2017-05-14T08:05:15.558Z,21.80
2017-05-14T08:06:15.030Z,21.80
2017-05-14T08:07:13.133Z,21.81
2017-05-14T08:08:15.603Z,21.82
2017-05-14T08:09:15.686Z,21.88
2017-05-14T08:10:14.718Z,21.83
2017-05-14T08:11:14.103Z,21.85
2017-05-14T08:12:14.887Z,21.85
2017-05-14T08:13:14.929Z,21.86
2017-05-14T08:14:14.901Z,21.88
2017-05-14T08:15:09.887Z,21.88
2017-05-14T08:16:15.913Z,21.89
2017-05-14T08:17:15.268Z,21.90
2017-05-14T08:18:15.375Z,21.90
2017-05-14T08:19:14.946Z,21.91
2017-05-14T08:20:20.909Z,21.91
2017-05-14T08:21:11.878Z,21.91
2017-05-14T08:22:15.395Z,22.45
2017-05-14T08:23:15.190Z,21.98
2017-05-14T08:24:12.764Z,21.95
2017-05-14T08:25:14.801Z,22.47
2017-05-14T08:26:14.840Z,22.53
2017-05-14T08:27:15.073Z,22.56
2017-05-14T08:28:16.145Z,22.58
2017-05-14T08:29:15.346Z,22.59
2017-05-14T08:30:14.859Z,22.59
2017-05-14T08:31:14.219Z,22.25
2017-05-14T08:32:15.070Z,22.06
2017-05-14T08:33:15.480Z,22.02
2017-05-14T08:34:15.228Z,21.98
2017-05-14T08:35:15.691Z,21.96
2017-05-14T08:36:15.156Z,21.94
2017-05-14T08:37:15.071Z,21.94
2017-05-14T08:38:15.326Z,21.93
2017-05-14T08:39:14.575Z,21.92
2017-05-14T08:40:15.507Z,21.92
2017-05-14T08:41:16.564Z,21.92
2017-05-14T08:42:15.313Z,21.92
2017-05-14T08:43:15.466Z,21.98
2017-05-14T08:44:14.292Z,21.91
2017-05-14T08:45:14.785Z,21.91
2017-05-14T08:46:20.956Z,21.91
2017-05-14T08:47:14.868Z,21.92
2017-05-14T08:48:15.147Z,21.92
2017-05-14T08:49:15.635Z,21.94
2017-05-14T08:50:14.296Z,21.94
2017-05-14T08:51:14.096Z,21.95
2017-05-14T08:52:16.090Z,21.96
2017-05-14T08:53:14.979Z,21.95
2017-05-14T08:54:15.822Z,21.97
2017-05-14T08:55:11.700Z,21.94
2017-05-14T08:56:14.732Z,21.95
2017-05-14T08:57:15.956Z,21.94
2017-05-14T08:58:15.253Z,21.94
2017-05-14T08:59:20.686Z,21.95
2017-05-14T09:00:14.547Z,21.95
2017-05-14T09:01:16.514Z,21.96
2017-05-14T09:02:14.379Z,21.95
2017-05-14T09:03:16.304Z,21.95
2017-05-14T09:04:12.343Z,21.93
2017-05-14T09:05:15.993Z,22.48
2017-05-14T09:06:16.254Z,22.53
2017-05-14T09:07:15.617Z,22.56
2017-05-14T09:08:14.450Z,22.56
2017-05-14T09:09:15.921Z,22.57
2017-05-14T09:10:15.207Z,22.59
2017-05-14T09:11:15.392Z,22.61
2017-05-14T09:12:11.505Z,22.08
2017-05-14T09:13:15.572Z,22.57
2017-05-14T09:14:15.300Z,22.58
2017-05-14T09:15:16.120Z,22.60
2017-05-14T09:16:15.153Z,22.60
2017-05-14T09:17:15.510Z,22.61
2017-05-14T09:18:15.227Z,22.61
2017-05-14T09:19:12.392Z,22.62
2017-05-14T09:20:15.535Z,22.61
2017-05-14T09:21:11.508Z,22.61
2017-05-14T09:22:14.896Z,22.08
2017-05-14T09:23:15.491Z,22.07
2017-05-14T09:24:14.554Z,21.98
2017-05-14T09:25:15.021Z,21.97
2017-05-14T09:26:15.307Z,21.98
2017-05-14T09:27:15.654Z,21.96
2017-05-14T09:28:14.298Z,21.96
2017-05-14T09:29:14.682Z,21.95
2017-05-14T09:30:15.234Z,21.96
2017-05-14T09:31:16.369Z,21.95
2017-05-14T09:32:16.254Z,21.95
2017-05-14T09:33:13.325Z,21.94
2017-05-14T09:34:15.145Z,22.50
2017-05-14T09:35:16.554Z,22.56
2017-05-14T09:36:14.714Z,22.59
2017-05-14T09:37:15.783Z,22.11
2017-05-14T09:38:14.777Z,22.03
2017-05-14T09:39:15.604Z,22.10
2017-05-14T09:40:15.184Z,22.01
2017-05-14T09:41:15.566Z,22.01
2017-05-14T09:42:13.769Z,22.00
2017-05-14T09:43:14.878Z,21.99
2017-05-14T09:44:15.919Z,21.98
2017-05-14T09:45:15.734Z,21.98
2017-05-14T09:46:15.065Z,21.97
2017-05-14T09:47:15.277Z,21.97
2017-05-14T09:48:15.942Z,22.04
2017-05-14T09:49:16.867Z,21.97
2017-05-14T09:50:15.065Z,21.97
2017-05-14T09:51:10.939Z,21.96
2017-05-14T09:52:14.811Z,21.97
2017-05-14T09:53:15.736Z,21.98
2017-05-14T09:54:14.711Z,21.98
2017-05-14T09:55:14.979Z,22.00
2017-05-14T09:56:15.777Z,22.05
2017-05-14T09:57:10.184Z,22.01
2017-05-14T09:58:14.504Z,22.02
2017-05-14T09:59:15.422Z,22.02
2017-05-14T10:00:16.130Z,22.00
2017-05-14T10:01:17.605Z,22.00
2017-05-14T10:02:16.671Z,21.98
2017-05-14T10:03:14.722Z,21.98
2017-05-14T10:04:16.570Z,21.97
2017-05-14T10:05:14.666Z,21.97
2017-05-14T10:06:18.879Z,21.96
2017-05-14T10:07:14.799Z,21.97
2017-05-14T10:08:15.718Z,21.96
2017-05-14T10:09:14.766Z,21.95
2017-05-14T10:10:15.231Z,21.95
2017-05-14T10:11:15.571Z,21.96
2017-05-14T10:12:10.974Z,21.94
2017-05-14T10:13:15.007Z,21.99
2017-05-14T10:14:15.762Z,21.94
2017-05-14T10:15:15.224Z,21.97
2017-05-14T10:16:14.189Z,22.47
2017-05-14T10:17:15.722Z,22.53
2017-05-14T10:18:14.967Z,22.55
2017-05-14T10:19:15.389Z,22.56
2017-05-14T10:20:15.786Z,22.04
2017-05-14T10:21:10.424Z,21.99
2017-05-14T10:22:14.228Z,21.98
2017-05-14T10:23:13.981Z,21.96
2017-05-14T10:24:14.307Z,21.97
2017-05-14T10:25:15.529Z,21.99
2017-05-14T10:26:14.928Z,21.95
2017-05-14T10:27:14.891Z,21.95
2017-05-14T10:28:15.210Z,21.95
2017-05-14T10:29:14.987Z,21.95
2017-05-14T10:30:12.683Z,21.95
2017-05-14T10:31:15.320Z,21.94
2017-05-14T10:32:15.606Z,21.95
2017-05-14T10:33:14.710Z,21.95
2017-05-14T10:34:16.720Z,21.94
2017-05-14T10:35:15.227Z,22.00
2017-05-14T10:36:17.599Z,21.95
2017-05-14T10:37:14.868Z,21.94
2017-05-14T10:38:11.714Z,22.48
2017-05-14T10:39:14.532Z,22.01
2017-05-14T10:40:14.880Z,21.97
2017-05-14T10:41:15.627Z,21.96
2017-05-14T10:42:15.057Z,21.96
2017-05-14T10:43:15.589Z,21.96
2017-05-14T10:44:15.315Z,22.05
2017-05-14T10:45:15.372Z,22.49
2017-05-14T10:46:15.848Z,22.55
2017-05-14T10:47:15.527Z,22.56
2017-05-14T10:48:14.868Z,22.59
2017-05-14T10:49:10.952Z,22.07
2017-05-14T10:50:14.987Z,22.03
2017-05-14T10:51:11.659Z,22.01
2017-05-14T10:52:15.215Z,22.05
2017-05-14T10:53:11.258Z,21.98
2017-05-14T10:54:15.631Z,21.98
2017-05-14T10:55:14.788Z,21.99
2017-05-14T10:56:15.235Z,21.99
2017-05-14T10:57:14.668Z,21.98
2017-05-14T10:58:15.049Z,22.01
2017-05-14T10:59:15.084Z,22.52
2017-05-14T11:00:15.308Z,22.18
2017-05-14T11:01:16.130Z,22.04
2017-05-14T11:02:16.087Z,22.00
2017-05-14T11:03:16.432Z,21.98
2017-05-14T11:04:14.153Z,21.99
2017-05-14T11:05:11.356Z,21.98
2017-05-14T11:06:14.691Z,22.03
2017-05-14T11:07:10.733Z,21.94
2017-05-14T11:08:15.576Z,21.88
2017-05-14T11:09:15.928Z,21.87
2017-05-14T11:10:15.527Z,21.82
2017-05-14T11:11:14.334Z,21.76
2017-05-14T11:12:09.524Z,21.66
2017-05-14T11:13:15.665Z,21.68
2017-05-14T11:14:15.162Z,21.67
2017-05-14T11:15:16.101Z,21.59
2017-05-14T11:16:15.364Z,21.56
2017-05-14T11:17:16.719Z,21.52
2017-05-14T11:18:15.227Z,21.43
2017-05-14T11:19:15.775Z,21.41
2017-05-14T11:20:14.364Z,21.34
2017-05-14T11:21:15.526Z,21.25
2017-05-14T11:22:15.032Z,21.25
2017-05-14T11:23:15.454Z,21.33
2017-05-14T11:24:15.034Z,21.40
2017-05-14T11:25:10.785Z,21.45
2017-05-14T11:26:14.591Z,21.50
2017-05-14T11:27:15.631Z,21.54
2017-05-14T11:28:15.253Z,21.58
2017-05-14T11:29:11.635Z,21.61
2017-05-14T11:30:15.487Z,21.64
2017-05-14T11:31:15.685Z,21.75
2017-05-14T11:32:14.898Z,21.71
2017-05-14T11:33:15.192Z,21.72
2017-05-14T11:34:16.023Z,21.74
2017-05-14T11:35:15.505Z,21.76
2017-05-14T11:36:14.999Z,21.77
2017-05-14T11:37:15.565Z,21.79
2017-05-14T11:38:15.046Z,21.80
2017-05-14T11:39:15.617Z,21.81
2017-05-14T11:40:15.563Z,21.88
2017-05-14T11:41:15.581Z,21.82
2017-05-14T11:42:15.645Z,21.90
2017-05-14T11:43:12.556Z,22.36
2017-05-14T11:44:14.750Z,22.42
2017-05-14T11:45:09.924Z,22.44
2017-05-14T11:46:15.044Z,21.91
2017-05-14T11:47:17.016Z,21.87
2017-05-14T11:48:15.040Z,21.86
2017-05-14T11:49:17.213Z,21.84
2017-05-14T11:50:14.662Z,21.83
2017-05-14T11:51:15.318Z,21.83
2017-05-14T11:52:14.881Z,21.82
2017-05-14T11:53:15.121Z,21.82
2017-05-14T11:54:12.063Z,21.81
2017-05-14T11:55:15.510Z,21.81
2017-05-14T11:56:15.270Z,21.81
2017-05-14T11:57:15.839Z,21.82
2017-05-14T11:58:10.982Z,21.81
2017-05-14T11:59:15.225Z,21.80
2017-05-14T12:00:16.222Z,21.81
2017-05-14T12:01:15.221Z,21.80
2017-05-14T12:02:16.639Z,21.81
2017-05-14T12:03:14.872Z,21.80
2017-05-14T12:04:16.880Z,21.80
2017-05-14T12:05:15.541Z,21.80
2017-05-14T12:06:14.944Z,21.80
2017-05-14T12:07:15.381Z,21.80
2017-05-14T12:08:15.707Z,21.80
2017-05-14T12:09:14.670Z,21.79
2017-05-14T12:10:15.666Z,21.79
2017-05-14T12:11:14.107Z,21.80
2017-05-14T12:12:14.703Z,21.80
2017-05-14T12:13:15.924Z,21.79
2017-05-14T12:14:09.999Z,21.79
2017-05-14T12:15:15.178Z,21.80
2017-05-14T12:16:15.253Z,21.79
2017-05-14T12:17:15.389Z,21.80
2017-05-14T12:18:11.369Z,21.80
2017-05-14T12:19:15.173Z,21.80
2017-05-14T12:20:15.803Z,21.80
2017-05-14T12:21:14.347Z,21.80
2017-05-14T12:22:14.449Z,21.80
2017-05-14T12:23:14.692Z,21.81
2017-05-14T12:24:15.633Z,21.81
2017-05-14T12:25:14.961Z,21.82
2017-05-14T12:26:15.444Z,21.83
2017-05-14T12:27:14.035Z,22.36
2017-05-14T12:28:15.303Z,22.42
2017-05-14T12:29:16.121Z,22.45
2017-05-14T12:30:15.661Z,22.46
2017-05-14T12:31:16.338Z,21.94
2017-05-14T12:32:15.237Z,21.90
2017-05-14T12:33:14.783Z,21.89
2017-05-14T12:34:09.911Z,21.88
2017-05-14T12:35:15.009Z,21.88
2017-05-14T12:36:16.063Z,21.90
2017-05-14T12:37:15.578Z,22.41
2017-05-14T12:38:15.451Z,22.44
2017-05-14T12:39:14.919Z,21.94
2017-05-14T12:40:15.900Z,21.90
2017-05-14T12:41:15.596Z,21.96
2017-05-14T12:42:14.491Z,21.88
2017-05-14T12:43:15.190Z,21.86
2017-05-14T12:44:15.780Z,21.86
2017-05-14T12:45:14.625Z,21.92
2017-05-14T12:46:15.186Z,21.85
2017-05-14T12:47:18.906Z,21.84
2017-05-14T12:48:15.112Z,21.85
2017-05-14T12:49:14.945Z,21.84
2017-05-14T12:50:16.932Z,21.83
2017-05-14T12:51:15.016Z,21.84
2017-05-14T12:52:14.996Z,21.83